Abingdon, Illinois
Current Conditions -  °F | °C
As of 1:35 AM on Friday 19 Dec 2014 (Local Time) from KGBG Reporting Station
Overcast Overcast  
Wind Chill: 22°   Ceiling: 5000
Heat Index: 22°   Visibility: 10mi
Dew Point: 20°   Wind: 0mph
Humidity: 91%   Direction: NA
Pressure: 30.3"   Gusts: NA
Location:  40.8°N, 90.4°W
Report Text: KGBG 190735Z AUTO 00000KT 10SM SCT040 OVC050 M05/M06 A3030 RMK AO2 T10531065
Loading
Personal Weather Stations






























Interactive Weather Map New forecast layout! Learn more

10-Day Weather Forecast

Advertisements
Track Severe Weather on mobile